地図

経路データ

SID SEASON NUMBER BASIN SUBBASIN NAME ISO_TIME NATURE LAT LON WMO_WIND WMO_PRES WMO_AGENCY TRACK_TYPE DIST2LAND LANDFALL IFLAG USA_AGENCY USA_ATCF_ID USA_LAT USA_LON USA_RECORD USA_STATUS USA_WIND USA_PRES USA_SSHS USA_R34_NE USA_R34_SE USA_R34_SW USA_R34_NW USA_R50_NE USA_R50_SE USA_R50_SW USA_R50_NW USA_R64_NE USA_R64_SE USA_R64_SW USA_R64_NW USA_POCI USA_ROCI USA_RMW USA_EYE TOKYO_LAT TOKYO_LON TOKYO_GRADE TOKYO_WIND TOKYO_PRES TOKYO_R50_DIR TOKYO_R50_LONG TOKYO_R50_SHORT TOKYO_R30_DIR TOKYO_R30_LONG TOKYO_R30_SHORT TOKYO_LAND CMA_LAT CMA_LON CMA_CAT CMA_WIND CMA_PRES HKO_LAT HKO_LON HKO_CAT HKO_WIND HKO_PRES NEWDELHI_LAT NEWDELHI_LON NEWDELHI_GRADE NEWDELHI_WIND NEWDELHI_PRES NEWDELHI_CI NEWDELHI_DP NEWDELHI_POCI REUNION_LAT REUNION_LON REUNION_TYPE REUNION_WIND REUNION_PRES REUNION_TNUM REUNION_CI REUNION_RMW REUNION_R34_NE REUNION_R34_SE REUNION_R34_SW REUNION_R34_NW REUNION_R50_NE REUNION_R50_SE REUNION_R50_SW REUNION_R50_NW REUNION_R64_NE REUNION_R64_SE REUNION_R64_SW REUNION_R64_NW BOM_LAT BOM_LON BOM_TYPE BOM_WIND BOM_PRES BOM_TNUM BOM_CI BOM_RMW BOM_R34_NE BOM_R34_SE BOM_R34_SW BOM_R34_NW BOM_R50_NE BOM_R50_SE BOM_R50_SW BOM_R50_NW BOM_R64_NE BOM_R64_SE BOM_R64_SW BOM_R64_NW BOM_ROCI BOM_POCI BOM_EYE BOM_POS_METHOD BOM_PRES_METHOD NADI_LAT NADI_LON NADI_CAT NADI_WIND NADI_PRES WELLINGTON_LAT WELLINGTON_LON WELLINGTON_WIND WELLINGTON_PRES DS824_LAT DS824_LON DS824_STAGE DS824_WIND DS824_PRES TD9636_LAT TD9636_LON TD9636_STAGE TD9636_WIND TD9636_PRES TD9635_LAT TD9635_LON TD9635_WIND TD9635_PRES TD9635_ROCI NEUMANN_LAT NEUMANN_LON NEUMANN_CLASS NEUMANN_WIND NEUMANN_PRES MLC_LAT MLC_LON MLC_CLASS MLC_WIND MLC_PRES USA_GUST BOM_GUST BOM_GUST_PER REUNION_GUST REUNION_GUST_PER USA_SEAHGT USA_SEARAD_NE USA_SEARAD_SE USA_SEARAD_SW USA_SEARAD_NW STORM_SPEED STORM_DIR
2019339S06051 2020 2 SI MM BELNA 2019-12-05 00:00:00 NR -6.20000 51.2000 PROVISIONAL 693 682 O_____________ tcvitals SI022019 -6.20000 51.2000 35 1002 0 95 85 1009 130 25 3 168
2019339S06051 2020 2 SI MM BELNA 2019-12-05 03:00:00 NR -6.35000 51.2425 PROVISIONAL 671 661 P_____________ SI022019 -6.35000 51.2425 37 1000 0 95 87 1008 170 25 3 0
2019339S06051 2020 2 SI MM BELNA 2019-12-05 06:00:00 NR -6.50000 51.2000 PROVISIONAL 661 643 O_____________ tcvitals SI022019 -6.50000 51.2000 39 998 0 90 95 60 90 1008 210 25 4 217
2019339S06051 2020 2 SI MM BELNA 2019-12-05 09:00:00 NR -6.64998 51.0100 PROVISIONAL 643 613 P_____________ SI022019 -6.64998 51.0100 42 997 0 92 85 60 87 1008 202 25 6 239
2019339S06051 2020 2 SI MM BELNA 2019-12-05 12:00:00 NR -6.80000 50.7000 PROVISIONAL 613 592 O_____________ tcvitals SI022019 -6.80000 50.7000 45 997 0 95 75 60 85 1008 195 25 7 249
2019339S06051 2020 2 SI MM BELNA 2019-12-05 15:00:00 NR -6.92005 50.3074 PROVISIONAL 592 563 P_____________ SI022019 -6.92005 50.3074 49 995 0 87 72 57 80 1009 187 25 9 249
2019339S06051 2020 2 SI MM BELNA 2019-12-05 18:00:00 NR -7.10000 49.9000 PROVISIONAL 563 527 O_____________ tcvitals SI022019 -7.10000 49.9000 54 994 0 80 70 55 75 1010 180 25 9 233
2019339S06051 2020 2 SI MM BELNA 2019-12-05 21:00:00 NR -7.46495 49.5851 PROVISIONAL 516 481 P_____________ SI022019 -7.46495 49.5851 59 990 0 67 62 50 75 1009 180 17 9 220
2019339S06051 2020 2 SI MM BELNA 2019-12-06 00:00:00 NR -7.80000 49.3000 PROVISIONAL 481 481 O_____________ tcvitals SI022019 -7.80000 49.3000 64 987 1 55 55 45 75 1008 180 10 7 238
2019339S06051 2020 2 SI MM BELNA 2019-12-06 03:00:00 NR -7.85003 48.9699 PROVISIONAL 470 470 P_____________ SI022019 -7.85003 48.9699 64 988 1 65 65 47 72 1009 175 10 6 260
2019339S06051 2020 2 SI MM BELNA 2019-12-06 06:00:00 NR -7.90000 48.7000 PROVISIONAL 473 441 O_____________ tcvitals SI022019 -7.90000 48.7000 64 989 1 75 75 50 70 1010 170 10 5 228
2019339S06051 2020 2 SI MM BELNA 2019-12-06 09:00:00 NR -8.21247 48.5625 PROVISIONAL 441 399 P_____________ SI022019 -8.21247 48.5625 64 987 1 75 77 55 67 1008 170 10 7 196
2019339S06051 2020 2 SI MM BELNA 2019-12-06 12:00:00 NR -8.60000 48.5000 PROVISIONAL 399 355 O_____________ tcvitals SI022019 -8.60000 48.5000 64 986 1 75 80 60 65 1007 170 10 8 187
2019339S06051 2020 2 SI MM BELNA 2019-12-06 15:00:00 NR -8.96747 48.4650 PROVISIONAL 355 336 P_____________ SI022019 -8.96747 48.4650 64 987 1 75 72 52 55 1008 172 10 6 189
2019339S06051 2020 2 SI MM BELNA 2019-12-06 18:00:00 NR -9.20000 48.4000 PROVISIONAL 336 336 O_____________ tcvitals SI022019 -9.20000 48.4000 64 988 1 75 65 45 45 1009 175 10 3 239
2019339S06051 2020 2 SI MM BELNA 2019-12-06 21:00:00 NR -9.09999 48.2373 PROVISIONAL 353 353 P_____________ SI022019 -9.09999 48.2373 69 984 1 65 67 50 42 1009 167 10 4 297
2019339S06051 2020 2 SI MM BELNA 2019-12-07 00:00:00 NR -9.00000 48.0000 PROVISIONAL 371 363 O_____________ tcvitals SI022019 -9.00000 48.0000 74 981 1 55 70 55 40 1009 160 10 6 257
2019339S06051 2020 2 SI MM BELNA 2019-12-07 03:00:00 NR -9.23258 47.6702 PROVISIONAL 363 342 P_____________ SI022019 -9.23258 47.6702 79 977 1 70 75 60 42 1009 165 7 8 225
2019339S06051 2020 2 SI MM BELNA 2019-12-07 06:00:00 NR -9.60000 47.4000 PROVISIONAL 342 315 O_____________ tcvitals SI022019 -9.60000 47.4000 84 974 2 85 80 65 45 1009 170 5 8 202
2019339S06051 2020 2 SI MM BELNA 2019-12-07 09:00:00 NR -9.94995 47.3698 PROVISIONAL 315 281 P_____________ SI022019 -9.94995 47.3698 91 966 2 85 77 67 47 1007 167 5 7 0
2019339S06051 2020 2 SI MM BELNA 2019-12-07 12:00:00 NR -10.3000 47.4000 PROVISIONAL 281 258 O_____________ tcvitals SI022019 -10.3000 47.4000 99 959 3 85 75 70 50 1006 165 5 6 182
2019339S06051 2020 2 SI MM BELNA 2019-12-07 15:00:00 NR -10.5850 47.3449 PROVISIONAL 265 249 P_____________ SI022019 -10.5850 47.3449 99 959 3 85 80 70 57 1006 152 5 6 198
2019339S06051 2020 2 SI MM BELNA 2019-12-07 18:00:00 NR -10.9000 47.2000 PROVISIONAL 249 237 O_____________ tcvitals SI022019 -10.9000 47.2000 99 960 3 85 85 70 65 1007 140 5 9 210
2019339S06051 2020 2 SI MM BELNA 2019-12-07 21:00:00 NR -11.3801 46.8854 PROVISIONAL 240 239 P_____________ SI022019 -11.3801 46.8854 94 964 2 85 85 70 65 1007 140 5 11 213
2019339S06051 2020 2 SI MM BELNA 2019-12-08 00:00:00 NR -11.8000 46.6000 PROVISIONAL 251 243 O_____________ tcvitals SI022019 -11.8000 46.6000 89 969 2 85 85 70 65 1007 140 5 6 210
2019339S06051 2020 2 SI MM BELNA 2019-12-08 03:00:00 NR -11.9374 46.5623 PROVISIONAL 243 234 P_____________ SI022019 -11.9374 46.5623 89 969 2 67 70 57 55 1007 137 5 2 172
2019339S06051 2020 2 SI MM BELNA 2019-12-08 06:00:00 NR -12.0000 46.6000 PROVISIONAL 234 218 O_____________ tcvitals SI022019 -12.0000 46.6000 89 970 2 50 55 45 45 1008 135 5 2 176
2019339S06051 2020 2 SI MM BELNA 2019-12-08 09:00:00 NR -12.1775 46.5650 PROVISIONAL 218 210 P_____________ SI022019 -12.1775 46.5650 86 970 2 50 55 47 45 1006 137 5 4 193
2019339S06051 2020 2 SI MM BELNA 2019-12-08 12:00:00 NR -12.4000 46.5000 PROVISIONAL 210 202 O_____________ tcvitals SI022019 -12.4000 46.5000 84 971 2 50 55 50 45 1005 140 5 5 198
2019339S06051 2020 2 SI MM BELNA 2019-12-08 15:00:00 NR -12.6275 46.4150 PROVISIONAL 203 191 P_____________ SI022019 -12.6275 46.4150 86 969 2 50 55 50 45 1005 140 5 5 201
2019339S06051 2020 2 SI MM BELNA 2019-12-08 18:00:00 NR -12.9000 46.3000 PROVISIONAL 195 190 O_____________ tcvitals SI022019 -12.9000 46.3000 89 967 2 50 55 50 45 1005 140 5 6 203
2019339S06051 2020 2 SI MM BELNA 2019-12-08 21:00:00 NR -13.2125 46.1649 PROVISIONAL 192 192 P_____________ SI022019 -13.2125 46.1649 84 970 2 50 55 50 45 1005 140 5 8 203
2019339S06051 2020 2 SI MM BELNA 2019-12-09 00:00:00 NR -13.6000 46.0000 PROVISIONAL 202 178 O_____________ tcvitals SI022019 -13.6000 46.0000 80 974 1 50 55 50 45 1005 140 5 9 202
2019339S06051 2020 2 SI MM BELNA 2019-12-09 03:00:00 NR -14.0700 45.8000 PROVISIONAL 169 139 P_____________ SI022019 -14.0700 45.8000 80 976 1 52 50 60 47 1007 135 5 11 201
2019339S06051 2020 2 SI MM BELNA 2019-12-09 06:00:00 NR -14.6000 45.6000 PROVISIONAL 139 90 O_____________ tcvitals SI022019 -14.6000 45.6000 80 979 1 55 45 70 50 1009 130 5 12 197
2019339S06051 2020 2 SI MM BELNA 2019-12-09 09:00:00 NR -15.1649 45.4573 PROVISIONAL 79 35 P_____________ SI022019 -15.1649 45.4573 80 978 1 57 47 67 50 1008 132 5 11 195
2019339S06051 2020 2 SI MM BELNA 2019-12-09 12:00:00 NR -15.7000 45.3000 PROVISIONAL 35 0 O_____________ tcvitals SI022019 -15.7000 45.3000 80 978 1 60 50 65 50 1007 135 5 10 203
2019339S06051 2020 2 SI MM BELNA 2019-12-09 15:00:00 NR -16.1151 45.0351 PROVISIONAL 0 0 P_____________ SI022019 -16.1151 45.0351 77 980 1 60 45 52 52 1008 140 5 9 211
2019339S06051 2020 2 SI MM BELNA 2019-12-09 18:00:00 NR -16.5000 44.8000 PROVISIONAL 0 0 O_____________ tcvitals SI022019 -16.5000 44.8000 74 983 1 60 40 40 55 1009 145 5 9 201
2019339S06051 2020 2 SI MM BELNA 2019-12-09 21:00:00 NR -16.9424 44.7049 PROVISIONAL 0 0 P_____________ SI022019 -16.9424 44.7049 69 985 1 50 35 37 45 1008 140 5 9 186
2019339S06051 2020 2 SI MM BELNA 2019-12-10 00:00:00 NR -17.4000 44.7000 PROVISIONAL 0 0 O_____________ tcvitals SI022019 -17.4000 44.7000 64 988 1 40 30 35 35 1007 135 5 9 177
2019339S06051 2020 2 SI MM BELNA 2019-12-10 03:00:00 NR -17.8425 44.7424 PROVISIONAL 0 0 P_____________ SI022019 -17.8425 44.7424 62 989 0 42 37 37 37 1007 135 7 9 174
2019339S06051 2020 2 SI MM BELNA 2019-12-10 06:00:00 NR -18.3000 44.8000 PROVISIONAL 0 0 O_____________ tcvitals SI022019 -18.3000 44.8000 60 991 0 45 45 40 40 1007 135 10 10 178
2019339S06051 2020 2 SI MM BELNA 2019-12-10 09:00:00 NR -18.8300 44.7852 PROVISIONAL 0 0 P_____________ SI022019 -18.8300 44.7852 57 992 0 42 42 45 45 1007 135 12 10 179
2019339S06051 2020 2 SI MM BELNA 2019-12-10 12:00:00 NR -19.3000 44.8000 PROVISIONAL 0 0 O_____________ tcvitals SI022019 -19.3000 44.8000 54 993 0 40 40 50 50 1007 135 14 8 171
2019339S06051 2020 2 SI MM BELNA 2019-12-10 15:00:00 NR -19.5725 44.9201 PROVISIONAL 0 0 P_____________ SI022019 -19.5725 44.9201 49 997 0 42 40 42 40 1008 125 14 6 150
2019339S06051 2020 2 SI MM BELNA 2019-12-10 18:00:00 NR -19.8000 45.1000 PROVISIONAL 0 0 O_____________ tcvitals SI022019 -19.8000 45.1000 45 1001 0 45 40 35 30 1009 115 14 7 144
2019339S06051 2020 2 SI MM BELNA 2019-12-10 21:00:00 NR -20.1500 45.3596 PROVISIONAL 0 0 P_____________ SI022019 -20.1500 45.3596 40 1003 0 40 35 30 25 1009 112 14 8 152
2019339S06051 2020 2 SI MM BELNA 2019-12-11 00:00:00 NR -20.5000 45.5000 PROVISIONAL 0 0 O_____________ tcvitals SI022019 -20.5000 45.5000 35 1006 0 35 30 25 20 1009 110 14 6 182
2019339S06051 2020 2 SI MM BELNA 2019-12-11 03:00:00 NR -20.7752 45.3430 PROVISIONAL 0 0 P_____________ SI022019 -20.7752 45.3430 32 1006 -1 1010 115 17 7 223
2019339S06051 2020 2 SI MM BELNA 2019-12-11 06:00:00 NR -21.0000 45.0000 PROVISIONAL 0 O_____________ tcvitals SI022019 -21.0000 45.0000 29 1006 -1 1011 120 20 8 235

IBTrACS Databaseについて

本データベースは、米国NOAAが公開する1842年以降の世界の熱帯低気圧のベストトラックデータアーカイブInternational Best Track Archive for Climate Stewardship (IBTrACS)を、ウェブで閲覧しやすい形式に変換したものです。

最終更新日:2021-11-26